Terminal Aerodrome Forecast
Issued by NWS

Home | Current Version | Previous Version | Text Only | Print | Product List | Glossary On
Versions: 1 2 3 4 5 6 7 8 9 10 11 12 13 14 15 16 17 18 19 20 21 22 23 24 25 26 27 28 29
548
FTUS42 KCAE 230520
TAFOGB
TAF
KOGB 230520Z 2306/2406 16006KT P6SM SCT050 OVC250
     FM230700 18009KT P6SM VCSH OVC015 WS015/19035KT
      TEMPO 2309/2312 BKN008
     FM231300 24011G17KT P6SM SCT015 BKN025
     FM231700 27014G23KT P6SM FEW015 SCT250=

USA.gov is the U.S. government's official web portal to all federal, state and local government web resources and services.